Arnside, United Kingdom
Current Conditions -  °F | °C
As of 8:50 PM on Monday 26 Jan 2015 (Local Time) from EGNH Reporting Station
Broken Clouds Broken Clouds  
Wind Chill: 38°   Ceiling: 3000
Heat Index: 43°   Visibility: 6mi
Dew Point: 39°   Wind: 8mph
Humidity: 87%   Direction: 310°NW
Pressure: 30.33"   Gusts: NA
Location:  54.2°N, 2.83°W
Report Text: EGNH 262050Z 31007KT 9999 SCT023 BKN030 06/04 Q1027
Loading
Personal Weather Stations






























Interactive Weather Map New forecast layout! Learn more

10-Day Weather Forecast

Advertisements
Track Severe Weather on mobile